createdAt,value
2018-12-17T00:00:38.539Z,115.30
2018-12-17T00:01:38.497Z,108.20
2018-12-17T00:02:38.476Z,99.90
2018-12-17T00:03:38.448Z,103.60
2018-12-17T00:04:38.433Z,115.30
2018-12-17T00:05:41.675Z,103.70
2018-12-17T00:06:38.369Z,106.00
2018-12-17T00:07:38.344Z,103.50
2018-12-17T00:08:38.315Z,102.30
2018-12-17T00:09:38.302Z,105.60
2018-12-17T00:10:38.268Z,102.50
2018-12-17T00:11:38.237Z,108.90
2018-12-17T00:12:38.219Z,92.60
2018-12-17T00:13:38.188Z,108.70
2018-12-17T00:14:38.161Z,105.70
2018-12-17T00:15:38.140Z,100.00
2018-12-17T00:16:38.110Z,103.10
2018-12-17T00:17:38.084Z,103.60
2018-12-17T00:18:38.058Z,97.70
2018-12-17T00:19:38.031Z,99.60
2018-12-17T00:20:38.006Z,102.30
2018-12-17T00:21:37.980Z,104.90
2018-12-17T00:22:37.953Z,98.80
2018-12-17T00:23:37.927Z,102.40
2018-12-17T00:24:37.900Z,101.60
2018-12-17T00:25:37.875Z,100.60
2018-12-17T00:26:37.851Z,91.50
2018-12-17T00:27:37.824Z,98.00
2018-12-17T00:28:37.800Z,102.70
2018-12-17T00:29:37.772Z,102.80
2018-12-17T00:30:37.746Z,92.40
2018-12-17T00:31:37.720Z,89.20
2018-12-17T00:32:37.694Z,97.70
2018-12-17T00:33:37.678Z,95.80
2018-12-17T00:34:37.642Z,89.90
2018-12-17T00:35:37.617Z,93.90
2018-12-17T00:36:37.590Z,92.50
2018-12-17T00:37:37.568Z,97.20
2018-12-17T00:38:37.540Z,94.20
2018-12-17T00:39:37.512Z,87.30
2018-12-17T00:40:37.488Z,95.50
2018-12-17T00:41:37.463Z,86.70
2018-12-17T00:42:37.437Z,89.20
2018-12-17T00:43:37.410Z,87.00
2018-12-17T00:44:37.384Z,86.60
2018-12-17T00:45:37.402Z,87.20
2018-12-17T00:46:37.335Z,85.00
2018-12-17T00:47:37.305Z,88.20
2018-12-17T00:48:37.290Z,88.50
2018-12-17T00:49:37.254Z,91.70
2018-12-17T00:50:37.230Z,82.70
2018-12-17T00:51:37.201Z,82.00
2018-12-17T00:52:37.177Z,84.60
2018-12-17T00:53:37.152Z,75.00
2018-12-17T00:54:37.131Z,82.80
2018-12-17T00:55:37.099Z,76.90
2018-12-17T00:56:37.076Z,78.30
2018-12-17T00:57:37.049Z,80.20
2018-12-17T00:58:37.023Z,76.40
2018-12-17T00:59:36.996Z,83.10
2018-12-17T01:00:36.973Z,80.70
2018-12-17T01:01:36.945Z,80.40
2018-12-17T01:02:36.918Z,79.10
2018-12-17T01:03:36.896Z,81.30
2018-12-17T01:04:36.866Z,81.00
2018-12-17T01:05:36.843Z,76.10
2018-12-17T01:06:36.826Z,81.30
2018-12-17T01:07:36.788Z,82.60
2018-12-17T01:08:36.761Z,77.30
2018-12-17T01:09:36.742Z,71.00
2018-12-17T01:10:36.711Z,74.20
2018-12-17T01:11:36.683Z,80.90
2018-12-17T01:12:36.661Z,79.30
2018-12-17T01:13:36.638Z,77.60
2018-12-17T01:14:36.606Z,75.70
2018-12-17T01:15:36.579Z,69.60
2018-12-17T01:16:36.554Z,71.40
2018-12-17T01:17:36.530Z,66.30
2018-12-17T01:18:36.503Z,70.60
2018-12-17T01:19:36.553Z,72.20
2018-12-17T01:20:36.451Z,70.90
2018-12-17T01:21:36.425Z,69.40
2018-12-17T01:22:36.401Z,68.80
2018-12-17T01:23:36.380Z,69.80
2018-12-17T01:24:36.347Z,74.30
2018-12-17T01:25:36.328Z,72.00
2018-12-17T01:26:36.293Z,66.20
2018-12-17T01:27:36.268Z,70.70
2018-12-17T01:28:36.242Z,74.20
2018-12-17T01:29:36.217Z,72.70
2018-12-17T01:30:36.196Z,68.20
2018-12-17T01:31:36.168Z,67.50
2018-12-17T01:32:36.145Z,64.20
2018-12-17T01:33:36.111Z,64.60
2018-12-17T01:34:36.091Z,69.40
2018-12-17T01:35:36.062Z,68.50
2018-12-17T01:36:36.035Z,65.90
2018-12-17T01:37:36.009Z,60.70
2018-12-17T01:38:35.990Z,65.60
2018-12-17T01:39:35.957Z,67.00
2018-12-17T01:40:35.930Z,64.20
2018-12-17T01:41:35.906Z,62.80
2018-12-17T01:42:35.887Z,60.70
2018-12-17T01:43:35.853Z,64.60
2018-12-17T01:44:35.826Z,64.80
2018-12-17T01:45:35.801Z,64.80
2018-12-17T01:46:35.774Z,63.30
2018-12-17T01:47:35.749Z,63.30
2018-12-17T01:48:35.720Z,61.90
2018-12-17T01:49:35.701Z,60.70
2018-12-17T01:50:35.673Z,65.00
2018-12-17T01:51:35.647Z,65.60
2018-12-17T01:52:35.617Z,63.30
2018-12-17T01:53:35.595Z,62.70
2018-12-17T01:54:35.567Z,66.20
2018-12-17T01:55:35.542Z,59.90
2018-12-17T01:56:35.514Z,59.00
2018-12-17T01:57:35.492Z,61.00
2018-12-17T01:58:35.462Z,56.00
2018-12-17T01:59:35.437Z,61.90
2018-12-17T02:00:35.408Z,59.40
2018-12-17T02:01:35.386Z,60.60
2018-12-17T02:02:35.361Z,59.20
2018-12-17T02:03:35.333Z,61.50
2018-12-17T02:04:35.307Z,59.30
2018-12-17T02:05:35.279Z,57.80
2018-12-17T02:06:35.253Z,59.80
2018-12-17T02:07:35.231Z,59.70
2018-12-17T02:08:35.201Z,56.60
2018-12-17T02:09:35.180Z,61.80
2018-12-17T02:10:35.149Z,52.20
2018-12-17T02:11:35.126Z,54.90
2018-12-17T02:12:35.097Z,65.10
2018-12-17T02:13:35.072Z,62.80
2018-12-17T02:14:35.048Z,57.50
2018-12-17T02:15:35.020Z,53.10
2018-12-17T02:16:34.993Z,54.40
2018-12-17T02:17:34.973Z,58.50
2018-12-17T02:18:34.941Z,54.30
2018-12-17T02:19:34.916Z,59.00
2018-12-17T02:20:34.893Z,52.20
2018-12-17T02:21:34.867Z,50.60
2018-12-17T02:22:34.838Z,52.00
2018-12-17T02:23:34.811Z,56.00
2018-12-17T02:24:34.786Z,53.90
2018-12-17T02:25:34.762Z,56.20
2018-12-17T02:26:34.734Z,58.50
2018-12-17T02:27:34.719Z,56.50
2018-12-17T02:28:36.236Z,60.00
2018-12-17T02:29:34.659Z,57.10
2018-12-17T02:30:34.632Z,53.50
2018-12-17T02:31:34.605Z,56.40
2018-12-17T02:32:34.577Z,56.30
2018-12-17T02:33:34.552Z,57.50
2018-12-17T02:34:34.528Z,56.30
2018-12-17T02:35:34.506Z,56.50
2018-12-17T02:36:34.477Z,55.90
2018-12-17T02:37:34.453Z,53.40
2018-12-17T02:38:34.423Z,55.10
2018-12-17T02:39:34.395Z,54.20
2018-12-17T02:40:34.370Z,49.80
2018-12-17T02:41:34.345Z,60.10
2018-12-17T02:42:34.322Z,50.90
2018-12-17T02:43:34.292Z,54.60
2018-12-17T02:44:34.271Z,57.20
2018-12-17T02:45:34.241Z,58.00
2018-12-17T02:46:34.216Z,53.00
2018-12-17T02:47:34.187Z,51.00
2018-12-17T02:48:34.210Z,52.80
2018-12-17T02:49:34.135Z,52.10
2018-12-17T02:50:34.119Z,54.80
2018-12-17T02:51:34.084Z,54.00
2018-12-17T02:52:34.058Z,52.10
2018-12-17T02:53:34.033Z,49.50
2018-12-17T02:54:34.007Z,52.40
2018-12-17T02:55:33.982Z,49.70
2018-12-17T02:56:33.955Z,47.90
2018-12-17T02:57:33.928Z,48.60
2018-12-17T02:58:33.905Z,49.40
2018-12-17T02:59:33.878Z,50.70
2018-12-17T03:00:33.853Z,52.30
2018-12-17T03:01:33.829Z,50.80
2018-12-17T03:02:33.801Z,55.10
2018-12-17T03:03:33.774Z,49.40
2018-12-17T03:04:33.747Z,51.60
2018-12-17T03:05:33.721Z,49.50
2018-12-17T03:06:33.696Z,49.70
2018-12-17T03:07:33.676Z,46.50
2018-12-17T03:08:33.645Z,48.20
2018-12-17T03:09:33.618Z,46.40
2018-12-17T03:10:33.595Z,45.60
2018-12-17T03:11:33.564Z,44.70
2018-12-17T03:12:33.539Z,45.60
2018-12-17T03:13:33.514Z,43.50
2018-12-17T03:14:33.489Z,49.40
2018-12-17T03:15:33.461Z,41.90
2018-12-17T03:16:33.437Z,44.00
2018-12-17T03:17:33.419Z,46.30
2018-12-17T03:18:33.424Z,43.60
2018-12-17T03:19:33.362Z,44.50
2018-12-17T03:20:33.336Z,45.20
2018-12-17T03:21:33.308Z,42.00
2018-12-17T03:22:33.282Z,41.00
2018-12-17T03:23:33.315Z,40.90
2018-12-17T03:24:33.233Z,41.90
2018-12-17T03:25:33.207Z,42.90
2018-12-17T03:26:33.184Z,42.40
2018-12-17T03:27:33.152Z,41.60
2018-12-17T03:28:33.126Z,42.50
2018-12-17T03:29:33.104Z,41.70
2018-12-17T03:30:33.078Z,38.20
2018-12-17T03:31:33.051Z,40.50
2018-12-17T03:32:33.026Z,41.00
2018-12-17T03:33:32.996Z,41.20
2018-12-17T03:34:32.974Z,40.80
2018-12-17T03:35:32.948Z,44.90
2018-12-17T03:36:32.927Z,43.00
2018-12-17T03:37:32.894Z,38.10
2018-12-17T03:38:32.871Z,40.80
2018-12-17T03:39:32.852Z,39.80
2018-12-17T03:40:32.816Z,40.70
2018-12-17T03:41:32.793Z,44.00
2018-12-17T03:42:32.766Z,41.30
2018-12-17T03:43:32.738Z,41.60
2018-12-17T03:44:32.712Z,42.00
2018-12-17T03:45:32.687Z,43.80
2018-12-17T03:46:32.662Z,43.10
2018-12-17T03:47:32.638Z,40.10
2018-12-17T03:48:32.608Z,40.20
2018-12-17T03:49:32.590Z,38.70
2018-12-17T03:50:32.559Z,40.00
2018-12-17T03:51:32.532Z,39.50
2018-12-17T03:52:32.509Z,39.20
2018-12-17T03:53:32.479Z,36.00
2018-12-17T03:54:32.455Z,39.80
2018-12-17T03:55:32.431Z,40.00
2018-12-17T03:56:32.405Z,36.90
2018-12-17T03:57:32.376Z,39.30
2018-12-17T03:58:32.349Z,40.50
2018-12-17T03:59:32.323Z,36.50
2018-12-17T04:00:32.300Z,38.70
2018-12-17T04:01:32.274Z,41.40
2018-12-17T04:02:32.256Z,40.20
2018-12-17T04:03:32.222Z,41.10
2018-12-17T04:04:32.193Z,40.60
2018-12-17T04:05:32.169Z,40.60
2018-12-17T04:06:32.151Z,37.70
2018-12-17T04:07:32.123Z,37.40
2018-12-17T04:08:32.092Z,38.20
2018-12-17T04:09:32.066Z,37.90
2018-12-17T04:10:32.043Z,40.20
2018-12-17T04:11:32.020Z,38.60
2018-12-17T04:12:31.991Z,41.30
2018-12-17T04:13:31.967Z,34.90
2018-12-17T04:14:31.939Z,41.20
2018-12-17T04:15:31.910Z,38.70
2018-12-17T04:16:31.885Z,42.80
2018-12-17T04:17:31.860Z,44.60
2018-12-17T04:18:31.834Z,39.60
2018-12-17T04:19:31.804Z,39.00
2018-12-17T04:20:31.782Z,40.50
2018-12-17T04:21:31.756Z,42.60
2018-12-17T04:22:31.729Z,41.10
2018-12-17T04:23:31.701Z,42.00
2018-12-17T04:24:31.680Z,38.70
2018-12-17T04:25:31.652Z,41.60
2018-12-17T04:26:31.635Z,36.80
2018-12-17T04:27:31.600Z,38.10
2018-12-17T04:28:31.577Z,37.70
2018-12-17T04:29:31.552Z,36.90
2018-12-17T04:30:31.528Z,40.80
2018-12-17T04:31:31.495Z,38.60
2018-12-17T04:32:31.469Z,38.40
2018-12-17T04:33:31.448Z,38.30
2018-12-17T04:34:31.450Z,38.90
2018-12-17T04:35:31.393Z,41.50
2018-12-17T04:36:31.366Z,37.80
2018-12-17T04:37:31.340Z,37.20
2018-12-17T04:38:31.316Z,41.50
2018-12-17T04:39:31.287Z,35.40
2018-12-17T04:40:31.265Z,38.00
2018-12-17T04:41:31.238Z,41.70
2018-12-17T04:42:31.211Z,37.90
2018-12-17T04:43:31.184Z,35.40
2018-12-17T04:44:31.161Z,37.00
2018-12-17T04:45:31.134Z,35.20
2018-12-17T04:46:31.109Z,38.90
2018-12-17T04:47:31.081Z,42.00
2018-12-17T04:48:31.061Z,38.70
2018-12-17T04:49:31.032Z,39.00
2018-12-17T04:50:31.004Z,37.10
2018-12-17T04:51:30.980Z,36.60
2018-12-17T04:52:30.955Z,34.30
2018-12-17T04:53:30.925Z,36.10
2018-12-17T04:54:30.902Z,34.70
2018-12-17T04:55:30.882Z,36.00
2018-12-17T04:56:30.848Z,35.60
2018-12-17T04:57:30.828Z,34.10
2018-12-17T04:58:30.805Z,37.20
2018-12-17T04:59:30.771Z,37.60
2018-12-17T05:00:30.745Z,38.10
2018-12-17T05:01:30.722Z,33.80
2018-12-17T05:02:30.694Z,37.20
2018-12-17T05:03:30.668Z,35.00
2018-12-17T05:04:30.645Z,32.50
2018-12-17T05:05:30.615Z,36.00
2018-12-17T05:06:30.590Z,33.50
2018-12-17T05:07:30.562Z,36.40
2018-12-17T05:08:30.537Z,36.20
2018-12-17T05:09:30.514Z,36.20
2018-12-17T05:10:30.521Z,32.60
2018-12-17T05:11:30.458Z,36.60
2018-12-17T05:12:30.435Z,36.30
2018-12-17T05:13:30.407Z,34.40
2018-12-17T05:14:30.379Z,34.60
2018-12-17T05:15:30.354Z,35.50
2018-12-17T05:16:30.329Z,33.40
2018-12-17T05:17:30.310Z,33.20
2018-12-17T05:18:30.285Z,35.50
2018-12-17T05:19:30.252Z,33.00
2018-12-17T05:20:30.226Z,34.10
2018-12-17T05:21:30.210Z,33.00
2018-12-17T05:22:30.182Z,35.70
2018-12-17T05:23:30.148Z,32.00
2018-12-17T05:24:30.123Z,30.90
2018-12-17T05:25:30.097Z,30.60
2018-12-17T05:26:30.072Z,31.30
2018-12-17T05:27:30.042Z,32.50
2018-12-17T05:28:30.028Z,35.40
2018-12-17T05:29:29.991Z,33.20
2018-12-17T05:30:29.967Z,32.60
2018-12-17T05:31:29.941Z,34.90
2018-12-17T05:32:31.398Z,33.30
2018-12-17T05:33:29.893Z,31.60
2018-12-17T05:34:29.864Z,31.30
2018-12-17T05:35:30.096Z,34.50
2018-12-17T05:36:29.813Z,34.00
2018-12-17T05:37:29.792Z,34.10
2018-12-17T05:38:30.077Z,32.30
2018-12-17T05:39:29.968Z,32.50
2018-12-17T05:40:29.742Z,31.40
2018-12-17T05:41:29.687Z,29.00
2018-12-17T05:42:29.659Z,33.40
2018-12-17T05:43:29.950Z,33.50
2018-12-17T05:44:29.922Z,30.40
2018-12-17T05:45:29.622Z,31.40
2018-12-17T05:46:29.765Z,31.90
2018-12-17T05:47:29.840Z,31.30
2018-12-17T05:48:29.499Z,32.20
2018-12-17T05:49:29.472Z,32.80
2018-12-17T05:50:29.456Z,31.10
2018-12-17T05:51:29.747Z,29.20
2018-12-17T05:52:29.715Z,30.20
2018-12-17T05:53:29.375Z,32.90
2018-12-17T05:54:29.349Z,29.90
2018-12-17T05:55:30.050Z,29.80
2018-12-17T05:56:29.623Z,27.90
2018-12-17T05:57:29.593Z,32.10
2018-12-17T05:58:29.444Z,32.00
2018-12-17T05:59:29.948Z,30.10
2018-12-17T06:00:29.521Z,31.40
2018-12-17T06:01:29.694Z,30.40
2018-12-17T06:02:30.078Z,30.00
2018-12-17T06:03:29.144Z,29.60
2018-12-17T06:04:29.109Z,31.70
2018-12-17T06:05:29.062Z,30.30
2018-12-17T06:06:29.034Z,30.30
2018-12-17T06:07:29.007Z,28.70
2018-12-17T06:08:28.995Z,31.40
2018-12-17T06:09:28.955Z,32.20
2018-12-17T06:10:28.931Z,29.00
2018-12-17T06:11:28.904Z,28.40
2018-12-17T06:12:28.879Z,32.90
2018-12-17T06:13:29.155Z,31.60
2018-12-17T06:15:29.120Z,29.90
2018-12-17T06:16:31.812Z,29.00
2018-12-17T06:17:29.490Z,29.90
2018-12-17T06:18:28.728Z,28.20
2018-12-17T06:19:30.159Z,29.50
2018-12-17T06:20:28.872Z,29.50
2018-12-17T06:21:28.994Z,30.70
2018-12-17T06:23:28.796Z,32.60
2018-12-17T06:24:28.788Z,31.20
2018-12-17T06:25:29.468Z,30.80
2018-12-17T06:26:28.543Z,31.30
2018-12-17T06:27:28.495Z,30.20
2018-12-17T06:28:28.792Z,30.00
2018-12-17T06:29:35.397Z,29.70
2018-12-17T06:30:28.453Z,28.90
2018-12-17T06:31:28.386Z,27.40
2018-12-17T06:32:28.411Z,29.90
2018-12-17T06:33:28.337Z,27.00
2018-12-17T06:34:28.631Z,29.90
2018-12-17T06:35:28.291Z,27.50
2018-12-17T06:36:28.362Z,25.60
2018-12-17T06:37:28.233Z,28.50
2018-12-17T06:38:28.252Z,27.50
2018-12-17T06:39:28.179Z,26.70
2018-12-17T06:40:28.473Z,27.50
2018-12-17T06:41:28.164Z,29.60
2018-12-17T06:42:28.106Z,30.70
2018-12-17T06:43:28.077Z,33.90
2018-12-17T06:44:28.987Z,33.10
2018-12-17T06:45:28.355Z,34.00
2018-12-17T06:46:28.734Z,31.80
2018-12-17T06:47:28.011Z,32.70
2018-12-17T06:49:27.922Z,32.10
2018-12-17T06:50:27.899Z,29.20
2018-12-17T06:51:27.873Z,30.10
2018-12-17T06:52:27.847Z,29.20
2018-12-17T06:53:27.821Z,29.10
2018-12-17T06:54:27.795Z,26.70
2018-12-17T06:55:27.769Z,27.60
2018-12-17T06:56:27.743Z,26.70
2018-12-17T06:57:27.716Z,26.60
2018-12-17T06:58:27.692Z,24.20
2018-12-17T06:59:27.668Z,23.70
2018-12-17T07:00:27.640Z,22.20
2018-12-17T07:01:28.207Z,21.30
2018-12-17T07:02:27.592Z,21.70
2018-12-17T07:03:27.563Z,23.10
2018-12-17T07:04:27.542Z,22.10
2018-12-17T07:05:27.513Z,25.20
2018-12-17T07:06:27.486Z,22.90
2018-12-17T07:07:27.461Z,22.80
2018-12-17T07:08:27.443Z,23.10
2018-12-17T07:09:27.410Z,20.90
2018-12-17T07:10:27.383Z,22.50
2018-12-17T07:11:27.364Z,34.60
2018-12-17T07:12:27.343Z,35.20
2018-12-17T07:13:27.308Z,27.60
2018-12-17T07:14:27.290Z,24.00
2018-12-17T07:15:27.256Z,20.80
2018-12-17T07:16:27.231Z,21.40
2018-12-17T07:17:27.205Z,22.10
2018-12-17T07:18:27.179Z,24.10
2018-12-17T07:19:27.153Z,24.40
2018-12-17T07:20:27.125Z,22.90
2018-12-17T07:21:27.105Z,23.10
2018-12-17T07:22:27.075Z,22.30
2018-12-17T07:23:27.047Z,23.90
2018-12-17T07:24:27.032Z,24.30
2018-12-17T07:25:26.994Z,23.80
2018-12-17T07:26:28.733Z,24.90
2018-12-17T07:27:26.943Z,21.30
2018-12-17T07:28:26.918Z,22.30
2018-12-17T07:29:26.895Z,21.80
2018-12-17T07:30:26.874Z,22.50
2018-12-17T07:31:26.842Z,20.20
2018-12-17T07:32:26.817Z,23.70
2018-12-17T07:33:26.789Z,20.10
2018-12-17T07:34:26.766Z,21.70
2018-12-17T07:35:26.747Z,23.40
2018-12-17T07:36:26.710Z,21.70
2018-12-17T07:37:26.686Z,24.00
2018-12-17T07:38:26.659Z,21.00
2018-12-17T07:39:26.636Z,27.40
2018-12-17T07:40:26.610Z,24.30
2018-12-17T07:41:26.580Z,23.20
2018-12-17T07:42:26.557Z,21.20
2018-12-17T07:43:26.529Z,25.80
2018-12-17T07:44:26.508Z,21.70
2018-12-17T07:45:26.488Z,21.80
2018-12-17T07:46:26.467Z,21.40
2018-12-17T07:47:26.431Z,21.00
2018-12-17T07:48:26.401Z,23.80
2018-12-17T07:49:26.379Z,22.60
2018-12-17T07:50:26.350Z,23.40
2018-12-17T07:51:26.321Z,22.00
2018-12-17T07:52:26.298Z,21.30
2018-12-17T07:53:26.273Z,21.40
2018-12-17T07:54:26.251Z,20.90
2018-12-17T07:55:26.227Z,21.50
2018-12-17T07:56:26.198Z,21.50
2018-12-17T07:57:26.170Z,26.80
2018-12-17T07:58:26.147Z,23.10
2018-12-17T07:59:26.118Z,23.30
2018-12-17T08:00:26.093Z,21.80
2018-12-17T08:01:26.068Z,21.70
2018-12-17T08:02:26.041Z,25.30
2018-12-17T08:03:26.016Z,21.10
2018-12-17T08:04:25.996Z,22.10
2018-12-17T08:05:25.963Z,26.00
2018-12-17T08:06:25.940Z,21.70
2018-12-17T08:07:25.926Z,21.20
2018-12-17T08:08:25.886Z,22.30
2018-12-17T08:09:25.861Z,26.10
2018-12-17T08:10:25.835Z,26.20
2018-12-17T08:11:25.809Z,24.60
2018-12-17T08:12:25.782Z,23.70
2018-12-17T08:13:25.760Z,26.40
2018-12-17T08:14:25.735Z,25.80
2018-12-17T08:15:25.706Z,23.20
2018-12-17T08:16:25.680Z,26.00
2018-12-17T08:17:25.654Z,22.00
2018-12-17T08:18:25.636Z,21.40
2018-12-17T08:19:25.607Z,21.40
2018-12-17T08:20:25.580Z,23.70
2018-12-17T08:21:25.553Z,22.30
2018-12-17T08:22:25.527Z,24.60
2018-12-17T08:23:25.503Z,23.80
2018-12-17T08:24:25.481Z,22.80
2018-12-17T08:25:25.449Z,24.50
2018-12-17T08:26:25.424Z,22.70
2018-12-17T08:27:25.402Z,28.20
2018-12-17T08:28:25.371Z,24.90
2018-12-17T08:29:25.345Z,21.90
2018-12-17T08:30:25.336Z,24.20
2018-12-17T08:31:25.302Z,24.60
2018-12-17T08:32:25.267Z,23.30
2018-12-17T08:33:25.247Z,21.10
2018-12-17T08:34:25.253Z,24.30
2018-12-17T08:35:25.202Z,22.60
2018-12-17T08:36:25.166Z,22.10
2018-12-17T08:37:25.142Z,23.20
2018-12-17T08:38:25.125Z,21.70
2018-12-17T08:39:25.097Z,22.60
2018-12-17T08:40:25.065Z,20.80
2018-12-17T08:41:25.037Z,20.00
2018-12-17T08:42:25.145Z,20.00
2018-12-17T08:43:24.987Z,22.80
2018-12-17T08:44:24.967Z,19.90
2018-12-17T08:45:24.935Z,21.20
2018-12-17T08:46:24.911Z,19.50
2018-12-17T08:47:24.888Z,23.10
2018-12-17T08:48:24.861Z,21.70
2018-12-17T08:49:24.833Z,21.40
2018-12-17T08:50:24.816Z,21.50
2018-12-17T08:51:24.784Z,22.60
2018-12-17T08:52:24.758Z,19.80
2018-12-17T08:53:24.735Z,20.30
2018-12-17T08:54:24.705Z,19.10
2018-12-17T08:55:24.679Z,22.70
2018-12-17T08:56:24.653Z,23.20
2018-12-17T08:57:24.636Z,21.90
2018-12-17T08:58:24.608Z,22.60
2018-12-17T08:59:24.582Z,22.90
2018-12-17T09:00:24.552Z,20.70
2018-12-17T09:01:24.526Z,21.50
2018-12-17T09:02:24.500Z,23.40
2018-12-17T09:03:24.491Z,22.60
2018-12-17T09:04:24.449Z,22.00
2018-12-17T09:05:24.438Z,19.80
2018-12-17T09:06:24.398Z,22.10
2018-12-17T09:07:24.374Z,23.30
2018-12-17T09:08:24.349Z,22.60
2018-12-17T09:09:24.331Z,23.80
2018-12-17T09:10:24.296Z,26.30
2018-12-17T09:11:24.272Z,23.60
2018-12-17T09:12:24.246Z,21.40
2018-12-17T09:13:24.220Z,23.00
2018-12-17T09:14:24.194Z,19.90
2018-12-17T09:15:24.177Z,20.50
2018-12-17T09:16:24.143Z,20.00
2018-12-17T09:17:24.118Z,24.60
2018-12-17T09:18:24.092Z,22.80
2018-12-17T09:19:24.066Z,21.00
2018-12-17T09:20:24.040Z,20.90
2018-12-17T09:21:24.015Z,20.60
2018-12-17T09:22:23.991Z,22.50
2018-12-17T09:23:23.966Z,22.30
2018-12-17T09:24:23.941Z,24.90
2018-12-17T09:25:23.964Z,21.30
2018-12-17T09:26:23.970Z,22.40
2018-12-17T09:27:23.862Z,23.10
2018-12-17T09:28:23.843Z,23.40
2018-12-17T09:29:23.819Z,23.30
2018-12-17T09:30:23.787Z,24.60
2018-12-17T09:31:23.761Z,23.10
2018-12-17T09:32:23.735Z,23.10
2018-12-17T09:33:23.716Z,21.80
2018-12-17T09:34:23.684Z,20.20
2018-12-17T09:35:23.660Z,21.90
2018-12-17T09:36:23.634Z,22.90
2018-12-17T09:37:23.617Z,27.00
2018-12-17T09:38:23.585Z,26.30
2018-12-17T09:39:23.559Z,22.10
2018-12-17T09:40:23.536Z,24.40
2018-12-17T09:41:23.506Z,23.30
2018-12-17T09:42:23.585Z,23.70
2018-12-17T09:43:23.460Z,26.70
2018-12-17T09:44:23.432Z,28.70
2018-12-17T09:45:23.407Z,25.30
2018-12-17T09:46:23.382Z,25.00
2018-12-17T09:47:23.354Z,23.40
2018-12-17T09:48:23.331Z,23.10
2018-12-17T09:49:23.305Z,27.20
2018-12-17T09:50:23.285Z,22.10
2018-12-17T09:51:23.260Z,24.80
2018-12-17T09:52:23.231Z,27.70
2018-12-17T09:53:23.204Z,26.10
2018-12-17T09:54:23.180Z,23.40
2018-12-17T09:55:23.155Z,19.80
2018-12-17T09:56:23.139Z,25.70
2018-12-17T09:57:23.104Z,24.00
2018-12-17T09:58:23.080Z,27.00
2018-12-17T09:59:23.052Z,27.00
2018-12-17T10:00:25.667Z,30.00
2018-12-17T10:01:23.013Z,28.90
2018-12-17T10:02:22.977Z,23.20
2018-12-17T10:03:22.951Z,24.10
2018-12-17T10:04:22.930Z,24.70
2018-12-17T10:05:22.901Z,24.20
2018-12-17T10:06:22.878Z,25.80
2018-12-17T10:07:22.848Z,23.70
2018-12-17T10:08:22.825Z,24.40
2018-12-17T10:09:22.800Z,22.70
2018-12-17T10:10:22.776Z,25.30
2018-12-17T10:11:22.757Z,23.80
2018-12-17T10:12:22.726Z,23.10
2018-12-17T10:13:22.699Z,24.50
2018-12-17T10:14:22.673Z,22.30
2018-12-17T10:15:22.650Z,20.60
2018-12-17T10:16:22.635Z,20.90
2018-12-17T10:17:22.601Z,22.20
2018-12-17T10:18:22.577Z,20.30
2018-12-17T10:19:22.559Z,21.90
2018-12-17T10:20:22.525Z,19.00
2018-12-17T10:21:22.499Z,23.60
2018-12-17T10:22:22.478Z,20.50
2018-12-17T10:23:22.446Z,23.90
2018-12-17T10:24:22.423Z,19.50
2018-12-17T10:25:22.397Z,20.20
2018-12-17T10:26:22.373Z,21.40
2018-12-17T10:27:22.346Z,20.70
2018-12-17T10:28:22.320Z,21.40
2018-12-17T10:29:22.294Z,21.60
2018-12-17T10:30:22.274Z,22.40
2018-12-17T10:31:22.247Z,22.10
2018-12-17T10:32:22.220Z,19.40
2018-12-17T10:33:22.194Z,22.60
2018-12-17T10:34:22.175Z,20.20
2018-12-17T10:35:22.144Z,23.30
2018-12-17T10:36:22.121Z,20.10
2018-12-17T10:37:22.095Z,22.20
2018-12-17T10:38:22.069Z,20.90
2018-12-17T10:39:22.044Z,22.30
2018-12-17T10:40:22.019Z,21.20
2018-12-17T10:41:21.995Z,19.90
2018-12-17T10:42:21.972Z,20.40
2018-12-17T10:43:21.942Z,20.30
2018-12-17T10:44:21.922Z,23.20
2018-12-17T10:45:21.893Z,24.30
2018-12-17T10:46:21.867Z,21.30
2018-12-17T10:47:21.850Z,20.40
2018-12-17T10:48:21.823Z,21.00
2018-12-17T10:49:21.793Z,19.30
2018-12-17T10:50:21.767Z,21.70
2018-12-17T10:51:21.740Z,21.00
2018-12-17T10:52:21.716Z,23.10
2018-12-17T10:53:21.691Z,22.10
2018-12-17T10:54:21.666Z,22.30
2018-12-17T10:55:21.640Z,22.40
2018-12-17T10:56:21.615Z,22.10
2018-12-17T10:57:21.591Z,20.40
2018-12-17T10:58:21.576Z,21.80
2018-12-17T10:59:21.544Z,20.20
2018-12-17T11:00:21.518Z,23.50
2018-12-17T11:01:21.495Z,20.80
2018-12-17T11:02:21.467Z,20.70
2018-12-17T11:03:21.451Z,24.40
2018-12-17T11:04:21.419Z,23.40
2018-12-17T11:05:21.395Z,22.40
2018-12-17T11:06:21.367Z,21.50
2018-12-17T11:07:21.341Z,21.20
2018-12-17T11:08:21.319Z,23.20
2018-12-17T11:09:21.293Z,23.00
2018-12-17T11:10:21.268Z,21.90
2018-12-17T11:11:21.244Z,22.20
2018-12-17T11:12:21.230Z,25.10
2018-12-17T11:13:21.192Z,24.80
2018-12-17T11:14:21.170Z,26.60
2018-12-17T11:15:21.144Z,23.80
2018-12-17T11:16:21.124Z,25.80
2018-12-17T11:17:21.092Z,26.60
2018-12-17T11:18:21.068Z,27.50
2018-12-17T11:19:21.054Z,25.00
2018-12-17T11:20:21.016Z,23.90
2018-12-17T11:21:20.994Z,28.20
2018-12-17T11:22:20.969Z,33.10
2018-12-17T11:23:20.944Z,35.60
2018-12-17T11:24:20.918Z,29.90
2018-12-17T11:25:20.892Z,30.40
2018-12-17T11:26:20.866Z,26.60
2018-12-17T11:27:20.845Z,28.00
2018-12-17T11:28:20.817Z,25.30
2018-12-17T11:29:20.793Z,24.60
2018-12-17T11:30:20.769Z,25.00
2018-12-17T11:31:20.743Z,25.20
2018-12-17T11:32:20.718Z,24.80
2018-12-17T11:33:20.694Z,24.40
2018-12-17T11:34:20.669Z,25.30
2018-12-17T11:35:20.643Z,28.50
2018-12-17T11:36:20.627Z,29.00
2018-12-17T11:37:20.598Z,25.10
2018-12-17T11:38:20.569Z,24.50
2018-12-17T11:39:20.622Z,24.60
2018-12-17T11:40:20.526Z,24.40
2018-12-17T11:41:20.495Z,24.80
2018-12-17T11:42:20.471Z,23.50
2018-12-17T11:43:20.448Z,25.40
2018-12-17T11:44:20.431Z,26.10
2018-12-17T11:45:20.402Z,26.00
2018-12-17T11:46:20.374Z,27.50
2018-12-17T11:47:20.362Z,25.00
2018-12-17T11:48:20.324Z,25.60
2018-12-17T11:49:20.303Z,24.90
2018-12-17T11:50:20.281Z,26.10
2018-12-17T11:51:20.271Z,26.30
2018-12-17T11:52:20.227Z,31.40
2018-12-17T11:53:20.202Z,31.60
2018-12-17T11:54:20.180Z,28.90
2018-12-17T11:55:20.151Z,28.20
2018-12-17T11:56:20.127Z,28.50
2018-12-17T11:57:20.103Z,27.00
2018-12-17T11:58:20.080Z,25.40
2018-12-17T11:59:20.061Z,26.90
2018-12-17T12:00:20.029Z,28.00
2018-12-17T12:01:20.011Z,26.60
2018-12-17T12:02:19.982Z,27.40
2018-12-17T12:03:19.966Z,28.20
2018-12-17T12:04:19.930Z,29.20
2018-12-17T12:05:19.902Z,29.00
2018-12-17T12:06:19.879Z,29.30
2018-12-17T12:07:19.854Z,29.20
2018-12-17T12:08:19.833Z,29.40
2018-12-17T12:09:19.812Z,29.30
2018-12-17T12:10:19.785Z,32.90
2018-12-17T12:11:19.755Z,29.60
2018-12-17T12:12:19.732Z,31.60
2018-12-17T12:13:19.706Z,32.10
2018-12-17T12:14:19.687Z,32.30
2018-12-17T12:15:19.657Z,32.70
2018-12-17T12:16:19.633Z,31.60
2018-12-17T12:17:19.610Z,32.30
2018-12-17T12:18:19.585Z,33.60
2018-12-17T12:19:19.563Z,33.60
2018-12-17T12:20:19.535Z,33.00
2018-12-17T12:21:19.509Z,37.30
2018-12-17T12:22:19.485Z,35.70
2018-12-17T12:23:19.463Z,36.50
2018-12-17T12:24:19.436Z,38.00
2018-12-17T12:25:19.417Z,35.60
2018-12-17T12:26:19.387Z,34.60
2018-12-17T12:27:19.361Z,36.70
2018-12-17T12:28:19.335Z,36.20
2018-12-17T12:29:19.312Z,35.80
2018-12-17T12:30:19.299Z,35.60
2018-12-17T12:31:19.263Z,38.10
2018-12-17T12:32:19.236Z,37.90
2018-12-17T12:33:19.214Z,38.60
2018-12-17T12:34:19.199Z,38.90
2018-12-17T12:35:19.164Z,37.30
2018-12-17T12:36:19.139Z,39.40
2018-12-17T12:37:19.120Z,40.40
2018-12-17T12:38:19.096Z,40.60
2018-12-17T12:39:19.065Z,44.60
2018-12-17T12:40:19.047Z,42.40
2018-12-17T12:41:19.027Z,42.70
2018-12-17T12:42:18.991Z,46.80
2018-12-17T12:43:18.974Z,43.20
2018-12-17T12:44:18.946Z,44.80
2018-12-17T12:45:18.917Z,43.40
2018-12-17T12:46:18.897Z,46.10
2018-12-17T12:47:18.870Z,46.10
2018-12-17T12:48:18.858Z,42.70
2018-12-17T12:49:18.819Z,44.40
2018-12-17T12:50:18.801Z,45.20
2018-12-17T12:51:18.770Z,46.80
2018-12-17T12:52:18.745Z,48.00
2018-12-17T12:53:18.721Z,51.70
2018-12-17T12:54:18.696Z,50.30